Time;durP1;ratioP1;P1;durP2;ratioP2;P2;SDS_P1;SDS_P2;PMS_P1;PMS_P2;Temp;Humidity;BMP_temperature;BMP_pressure;BME280_temperature;BME280_humidity;BME280_pressure;Samples;Min_cycle;Max_cycle;Signal;HPM_P1;HPM_P2
2021/08/01 00:01:37;;;;;;;12.15;4.65;;;;;;;19.53;86.47;95573.59;5017797;28;20214;-73
2021/08/01 00:04:04;;;;;;;10.40;5.00;;;;;;;19.34;86.48;95581.09;5017026;28;20206;-73
2021/08/01 00:06:31;;;;;;;13.90;5.32;;;;;;;19.16;89.52;95578.69;5015995;28;20206;-73
2021/08/01 00:08:57;;;;;;;12.10;5.47;;;;;;;19.20;89.50;95573.66;5016866;28;20252;-73
2021/08/01 00:11:25;;;;;;;12.65;4.75;;;;;;;19.24;89.31;95572.13;5017428;28;20225;-73
2021/08/01 00:13:51;;;;;;;11.48;5.18;;;;;;;19.21;88.44;95565.41;5016951;28;20210;-74
2021/08/01 00:16:18;;;;;;;8.23;4.32;;;;;;;18.75;88.64;95567.63;5016142;28;20776;-73
2021/08/01 00:18:44;;;;;;;10.00;4.32;;;;;;;18.92;88.90;95564.94;5017219;28;20237;-72
2021/08/01 00:21:12;;;;;;;8.10;4.60;;;;;;;18.95;88.67;95565.25;5017367;28;20233;-73
2021/08/01 00:23:38;;;;;;;11.80;5.25;;;;;;;19.00;90.34;95566.16;5017171;28;20208;-73
2021/08/01 00:26:05;;;;;;;11.88;4.28;;;;;;;19.17;88.22;95564.28;5016289;28;20301;-73
2021/08/01 00:28:33;;;;;;;8.93;4.90;;;;;;;19.35;87.28;95565.88;5016906;28;20233;-75
2021/08/01 00:31:00;;;;;;;9.95;4.88;;;;;;;19.10;86.83;95576.97;5016838;28;20422;-73
2021/08/01 00:33:26;;;;;;;7.75;4.20;;;;;;;18.99;85.77;95579.72;5016429;28;20264;-73
2021/08/01 00:35:52;;;;;;;11.10;5.05;;;;;;;18.66;87.92;95576.25;5016267;28;20205;-73
2021/08/01 00:38:19;;;;;;;10.00;4.70;;;;;;;18.53;89.75;95566.72;5017061;28;20202;-73
2021/08/01 00:40:45;;;;;;;8.52;4.55;;;;;;;18.50;90.29;95559.19;5016742;28;20757;-74
2021/08/01 00:43:12;;;;;;;9.38;4.90;;;;;;;18.55;90.88;95569.94;5017015;28;20206;-74
2021/08/01 00:45:40;;;;;;;14.85;5.22;;;;;;;18.78;92.31;95575.13;5016291;28;20209;-73
2021/08/01 00:48:09;;;;;;;11.18;4.82;;;;;;;18.97;89.16;95590.66;5016772;28;20585;-74
2021/08/01 00:50:36;;;;;;;10.27;5.85;;;;;;;19.05;91.58;95602.78;5016908;28;20670;-74
2021/08/01 00:53:03;;;;;;;10.23;5.13;;;;;;;18.97;89.00;95595.19;5016624;28;20202;-74
2021/08/01 00:55:29;;;;;;;11.02;5.30;;;;;;;18.92;88.65;95592.44;5015776;28;20205;-73
2021/08/01 00:57:55;;;;;;;11.52;5.32;;;;;;;19.00;89.57;95578.66;5016726;28;20214;-72
2021/08/01 01:00:35;;;;;;;10.77;5.20;;;;;;;19.25;89.37;95589.78;5016649;28;20198;-75
2021/08/01 01:03:12;;;;;;;10.00;5.93;;;;;;;19.27;89.67;95601.00;5016676;28;20247;-73
2021/08/01 01:05:46;;;;;;;11.32;6.03;;;;;;;19.34;90.20;95610.47;5016505;28;20267;-76
2021/08/01 01:08:22;;;;;;;11.63;5.07;;;;;;;19.21;89.77;95602.81;5016935;28;20212;-73
2021/08/01 01:10:52;;;;;;;10.52;5.40;;;;;;;19.02;88.94;95597.94;5016296;28;20240;-73
2021/08/01 01:13:24;;;;;;;9.63;5.15;;;;;;;19.03;89.72;95583.53;5017144;28;20205;-73
2021/08/01 01:15:54;;;;;;;9.82;5.72;;;;;;;19.09;90.91;95582.56;5015513;28;20198;-74
2021/08/01 01:18:26;;;;;;;16.90;6.30;;;;;;;19.09;91.75;95593.25;5015993;28;20202;-75
2021/08/01 01:21:17;;;;;;;10.75;5.82;;;;;;;19.33;90.82;95598.16;5016571;28;20226;-73
2021/08/01 01:23:46;;;;;;;7.43;5.32;;;;;;;19.14;91.39;95612.88;5020581;28;20212;-73
2021/08/01 01:26:16;;;;;;;9.50;5.20;;;;;;;19.06;90.37;95615.13;5019223;28;20698;-75
2021/08/01 01:28:48;;;;;;;7.25;5.10;;;;;;;19.09;90.43;95615.44;5020380;28;20240;-75
2021/08/01 01:31:25;;;;;;;8.35;4.60;;;;;;;19.19;88.10;95609.44;5020229;28;20226;-73
2021/08/01 01:34:01;;;;;;;7.22;5.20;;;;;;;19.30;89.41;95608.56;5020103;28;20678;-74
2021/08/01 01:36:30;;;;;;;10.35;5.60;;;;;;;19.15;91.83;95606.44;5019164;28;20201;-75
2021/08/01 01:38:59;;;;;;;13.73;6.57;;;;;;;19.25;92.69;95611.16;5020322;28;20205;-73
2021/08/01 01:41:27;;;;;;;10.13;5.70;;;;;;;19.16;91.95;95604.59;5019958;28;20228;-74
2021/08/01 01:43:54;;;;;;;9.57;5.72;;;;;;;19.02;92.02;95590.72;5019321;28;21025;-76
2021/08/01 01:46:22;;;;;;;9.93;5.50;;;;;;;19.04;91.53;95569.94;5019056;28;20718;-74
2021/08/01 01:48:49;;;;;;;9.40;5.45;;;;;;;19.00;91.59;95560.81;5019863;28;20230;-73
2021/08/01 01:51:16;;;;;;;10.68;5.00;;;;;;;18.73;92.33;95558.22;5019636;28;20218;-74
2021/08/01 01:53:45;;;;;;;10.23;5.35;;;;;;;18.84;91.98;95551.97;5019819;28;20209;-74
2021/08/01 01:56:14;;;;;;;10.45;4.90;;;;;;;18.72;92.26;95553.94;5019212;28;20202;-73
2021/08/01 01:58:41;;;;;;;9.55;5.20;;;;;;;18.79;92.98;95555.41;5020209;28;20201;-73
2021/08/01 02:01:08;;;;;;;11.05;6.13;;;;;;;18.77;93.79;95551.34;5019312;28;20221;-74
2021/08/01 02:03:34;;;;;;;11.13;6.15;;;;;;;18.80;93.66;95530.31;5019258;28;20202;-73
2021/08/01 02:06:01;;;;;;;12.00;5.32;;;;;;;18.80;91.79;95525.00;5019023;28;20230;-73
2021/08/01 02:08:33;;;;;;;18.60;5.65;;;;;;;18.69;92.01;95522.41;5019620;28;20205;-76
2021/08/01 02:11:03;;;;;;;9.25;5.30;;;;;;;18.84;91.91;95520.78;5019383;28;20372;-74
2021/08/01 02:13:37;;;;;;;7.40;5.20;;;;;;;18.79;91.00;95520.69;5019807;28;20277;-75
2021/08/01 02:16:05;;;;;;;10.70;5.10;;;;;;;18.84;92.16;95523.44;5018077;28;20218;-75
2021/08/01 02:18:36;;;;;;;10.98;5.80;;;;;;;18.82;91.91;95528.19;5020076;28;20209;-73
2021/08/01 02:21:04;;;;;;;11.88;5.97;;;;;;;18.57;92.79;95530.50;5019449;28;20229;-75
2021/08/01 02:23:34;;;;;;;9.27;5.45;;;;;;;18.74;92.70;95533.97;5019415;28;20209;-74
2021/08/01 02:26:02;;;;;;;11.30;6.25;;;;;;;18.65;92.69;95540.75;5018367;28;20202;-75
2021/08/01 02:28:31;;;;;;;8.38;5.82;;;;;;;18.75;93.35;95542.75;5020104;28;20221;-73
2021/08/01 02:30:59;;;;;;;10.27;5.63;;;;;;;18.76;92.28;95539.88;5018998;28;20240;-74
2021/08/01 02:33:27;;;;;;;8.60;5.50;;;;;;;18.92;91.62;95547.06;5018489;28;20201;-74
2021/08/01 02:35:56;;;;;;;12.18;5.50;;;;;;;18.99;92.00;95545.00;5018503;28;20202;-76
2021/08/01 02:38:24;;;;;;;11.00;5.80;;;;;;;19.02;91.13;95539.19;5019455;28;20217;-74
2021/08/01 02:40:52;;;;;;;7.95;5.22;;;;;;;18.89;91.46;95544.06;5018924;28;20236;-73
2021/08/01 02:43:22;;;;;;;13.80;5.68;;;;;;;18.86;91.67;95545.34;5018933;28;20635;-73
2021/08/01 02:45:51;;;;;;;10.45;5.55;;;;;;;19.04;91.01;95553.09;5018421;28;20213;-74
2021/08/01 02:48:19;;;;;;;9.02;5.47;;;;;;;18.87;91.55;95549.63;5018826;28;20582;-73
2021/08/01 02:50:49;;;;;;;12.35;5.47;;;;;;;19.03;91.03;95556.84;5018605;28;20229;-76
2021/08/01 02:53:19;;;;;;;12.93;5.70;;;;;;;18.96;90.62;95548.19;5015850;28;20205;-73
2021/08/01 02:55:50;;;;;;;6.50;5.22;;;;;;;18.91;91.08;95556.09;5017566;28;20631;-75
2021/08/01 02:58:17;;;;;;;10.90;5.95;;;;;;;18.84;92.07;95555.47;5018970;28;20209;-72
2021/08/01 03:00:47;;;;;;;9.25;6.38;;;;;;;18.53;92.09;95560.56;5018286;28;20214;-76
2021/08/01 03:03:15;;;;;;;12.68;6.03;;;;;;;18.36;92.86;95554.41;5018519;28;20865;-76
2021/08/01 03:05:43;;;;;;;11.52;6.80;;;;;;;18.05;95.46;95554.06;5017906;28;20206;-74
2021/08/01 03:08:12;;;;;;;10.50;7.05;;;;;;;18.22;95.77;95554.97;5018799;28;20206;-73
2021/08/01 03:10:42;;;;;;;8.73;6.90;;;;;;;17.96;97.09;95555.50;5018825;28;20222;-73
2021/08/01 03:13:08;;;;;;;14.02;7.53;;;;;;;18.27;96.91;95560.38;5018693;28;20205;-73
2021/08/01 03:15:35;;;;;;;9.38;7.10;;;;;;;18.39;94.85;95568.09;5017994;28;20202;-76
2021/08/01 03:18:03;;;;;;;12.85;7.55;;;;;;;18.44;94.36;95562.00;5018837;28;20210;-73
2021/08/01 03:20:30;;;;;;;12.35;7.43;;;;;;;18.39;94.51;95565.41;5018866;28;20201;-73
2021/08/01 03:22:56;;;;;;;12.07;7.53;;;;;;;18.22;95.34;95557.63;5018574;28;20573;-75
2021/08/01 03:25:23;;;;;;;11.60;7.38;;;;;;;17.95;96.12;95562.69;5018135;28;20310;-73
2021/08/01 03:27:49;;;;;;;11.63;7.63;;;;;;;17.81;98.40;95577.34;5018335;28;20205;-76
2021/08/01 03:30:16;;;;;;;11.30;7.93;;;;;;;17.59;99.82;95578.25;5018816;28;20594;-75
2021/08/01 03:32:42;;;;;;;14.05;8.32;;;;;;;17.48;100.00;95576.41;5019076;28;20908;-75
2021/08/01 03:35:11;;;;;;;13.52;8.68;;;;;;;17.67;100.00;95569.88;5018157;28;20213;-78
2021/08/01 03:37:37;;;;;;;14.13;8.57;;;;;;;17.58;100.00;95575.78;5017932;28;20201;-75
2021/08/01 03:40:05;;;;;;;13.07;8.65;;;;;;;17.54;100.00;95567.47;5018738;28;20312;-78
2021/08/01 03:42:32;;;;;;;15.15;8.43;;;;;;;17.21;100.00;95575.25;5018495;28;20228;-75
2021/08/01 03:44:58;;;;;;;12.80;8.27;;;;;;;17.26;100.00;95577.22;5016740;28;20217;-75
2021/08/01 03:47:25;;;;;;;15.68;8.48;;;;;;;17.26;100.00;95578.06;5017309;28;20232;-79
2021/08/01 03:49:51;;;;;;;12.25;7.45;;;;;;;17.28;100.00;95575.97;5017946;28;20236;-75
2021/08/01 03:52:19;;;;;;;14.60;7.65;;;;;;;17.54;100.00;95580.81;5016415;28;20603;-74
2021/08/01 03:54:45;;;;;;;14.77;8.70;;;;;;;17.53;100.00;95581.84;5016375;28;20205;-76
2021/08/01 03:57:13;;;;;;;13.45;8.15;;;;;;;17.45;100.00;95598.19;5016386;28;20209;-73
2021/08/01 03:59:40;;;;;;;12.63;8.02;;;;;;;17.50;100.00;95602.81;5017093;28;20198;-74
2021/08/01 04:02:06;;;;;;;16.55;8.20;;;;;;;17.36;100.00;95604.94;5016238;28;20598;-76
2021/08/01 04:04:33;;;;;;;11.25;7.30;;;;;;;17.35;100.00;95605.97;5016847;28;20202;-74
2021/08/01 04:06:59;;;;;;;10.95;7.43;;;;;;;17.20;100.00;95605.59;5015513;28;20220;-74
2021/08/01 04:09:27;;;;;;;13.57;7.20;;;;;;;17.33;100.00;95616.03;5015748;28;20229;-76
2021/08/01 04:11:54;;;;;;;13.50;7.43;;;;;;;17.40;100.00;95611.41;5016731;28;20236;-78
2021/08/01 04:14:20;;;;;;;16.05;7.10;;;;;;;17.49;100.00;95618.00;5016338;28;20216;-75
2021/08/01 04:16:47;;;;;;;13.80;7.82;;;;;;;17.62;100.00;95617.72;5015379;28;20241;-76
2021/08/01 04:19:14;;;;;;;13.35;7.53;;;;;;;17.49;100.00;95623.31;5016774;28;20197;-75
2021/08/01 04:21:41;;;;;;;17.42;7.72;;;;;;;17.54;100.00;95628.75;5016174;28;20627;-75
2021/08/01 04:24:07;;;;;;;13.68;8.27;;;;;;;17.54;100.00;95626.09;5015753;28;20208;-75
2021/08/01 04:26:36;;;;;;;14.45;8.48;;;;;;;17.52;100.00;95625.50;5015371;28;20678;-77
2021/08/01 04:29:02;;;;;;;15.40;8.57;;;;;;;17.34;100.00;95638.16;5016255;28;20213;-79
2021/08/01 04:31:29;;;;;;;18.00;9.23;;;;;;;17.39;100.00;95636.41;5016677;28;20257;-75
2021/08/01 04:33:55;;;;;;;17.55;9.40;;;;;;;17.66;100.00;95648.19;5016398;28;20216;-76
2021/08/01 04:36:22;;;;;;;13.13;8.77;;;;;;;17.42;100.00;95646.59;5015364;28;20217;-77
2021/08/01 04:38:48;;;;;;;14.32;9.23;;;;;;;17.38;100.00;95645.44;5016404;28;20665;-78
2021/08/01 04:41:15;;;;;;;13.63;7.70;;;;;;;17.33;100.00;95653.31;5016004;28;20217;-75
2021/08/01 04:43:43;;;;;;;13.40;7.43;;;;;;;17.33;100.00;95655.97;5016200;28;20221;-75
2021/08/01 04:46:09;;;;;;;12.45;7.05;;;;;;;17.26;100.00;95649.13;5015358;28;20210;-77
2021/08/01 04:48:36;;;;;;;12.13;7.05;;;;;;;17.37;99.81;95651.78;5015951;28;20202;-75
2021/08/01 04:51:02;;;;;;;13.35;6.80;;;;;;;17.29;99.55;95656.69;5016057;28;20236;-75
2021/08/01 04:53:29;;;;;;;9.95;6.25;;;;;;;17.71;97.47;95653.63;5016037;28;20209;-76
2021/08/01 04:55:55;;;;;;;11.10;7.70;;;;;;;18.13;97.25;95650.50;5016106;28;20205;-75
2021/08/01 04:58:22;;;;;;;12.60;6.97;;;;;;;18.08;95.77;95655.72;5019840;28;20206;-75
2021/08/01 05:00:50;;;;;;;11.80;6.50;;;;;;;18.31;93.96;95654.88;5018056;28;20597;-75
2021/08/01 05:03:16;;;;;;;11.88;7.05;;;;;;;18.27;94.94;95643.06;5019568;28;20658;-75
2021/08/01 05:05:43;;;;;;;11.73;6.45;;;;;;;18.16;94.61;95649.22;5018209;28;20570;-77
2021/08/01 05:08:09;;;;;;;13.15;6.47;;;;;;;18.15;94.34;95648.41;5019990;28;20202;-79
2021/08/01 05:10:36;;;;;;;13.20;5.45;;;;;;;18.04;94.29;95640.47;5019173;28;20228;-75
2021/08/01 05:13:06;;;;;;;9.65;4.78;;;;;;;18.30;92.86;95639.91;5019153;28;20213;-77
2021/08/01 05:15:33;;;;;;;9.02;5.05;;;;;;;18.18;93.16;95631.97;5018824;28;20213;-76
2021/08/01 05:18:02;;;;;;;9.43;5.25;;;;;;;18.07;92.91;95634.63;5019307;28;20208;-75
2021/08/01 05:20:28;;;;;;;8.93;5.40;;;;;;;18.06;93.22;95633.00;5019477;28;20205;-76
2021/08/01 05:22:55;;;;;;;9.77;5.05;;;;;;;18.10;91.93;95628.81;5019718;28;20210;-77
2021/08/01 05:25:21;;;;;;;7.78;4.32;;;;;;;18.03;91.11;95618.28;5019011;28;20823;-77
2021/08/01 05:27:47;;;;;;;5.88;4.10;;;;;;;18.21;90.98;95615.47;5019713;28;20201;-75
2021/08/01 05:30:14;;;;;;;10.38;4.57;;;;;;;18.44;91.39;95610.88;5019526;28;20378;-75
2021/08/01 05:32:41;;;;;;;5.85;3.67;;;;;;;18.49;89.21;95613.59;5019044;28;20222;-75
2021/08/01 05:35:09;;;;;;;4.88;3.72;;;;;;;18.53;88.66;95609.41;5019174;28;20206;-75
2021/08/01 05:37:36;;;;;;;7.40;3.67;;;;;;;18.45;89.53;95607.13;5019134;28;20587;-76
2021/08/01 05:40:03;;;;;;;9.00;4.00;;;;;;;18.51;89.57;95614.16;5019538;28;20206;-75
2021/08/01 05:42:29;;;;;;;6.50;3.63;;;;;;;18.35;89.39;95622.13;5019585;28;20581;-75
2021/08/01 05:44:56;;;;;;;5.72;3.70;;;;;;;18.43;88.35;95619.91;5018904;28;20212;-77
2021/08/01 05:47:22;;;;;;;7.90;4.10;;;;;;;18.36;90.04;95624.56;5018808;28;20205;-80
2021/08/01 05:49:49;;;;;;;5.90;3.70;;;;;;;18.41;88.58;95632.66;5019461;28;20297;-76
2021/08/01 05:52:17;;;;;;;5.38;3.75;;;;;;;18.65;89.82;95634.16;5018754;28;20440;-77
2021/08/01 05:54:43;;;;;;;5.18;3.90;;;;;;;18.50;86.14;95628.56;5020575;28;20205;-78
2021/08/01 05:57:10;;;;;;;6.15;4.00;;;;;;;18.63;85.78;95630.91;5019407;28;20205;-76
2021/08/01 05:59:37;;;;;;;7.47;3.97;;;;;;;18.68;87.44;95628.34;5019838;28;20612;-77
2021/08/01 06:02:03;;;;;;;7.07;3.95;;;;;;;18.75;87.63;95634.34;5019958;28;20710;-75
2021/08/01 06:04:30;;;;;;;5.68;3.20;;;;;;;18.77;85.65;95640.25;5020406;28;20225;-75
2021/08/01 06:06:56;;;;;;;4.15;3.22;;;;;;;18.76;88.83;95643.16;5019133;28;20209;-74
2021/08/01 06:09:24;;;;;;;6.88;3.88;;;;;;;18.91;90.04;95646.88;5019619;28;20208;-78
2021/08/01 06:11:51;;;;;;;6.95;3.97;;;;;;;18.95;89.99;95637.34;5020438;28;20863;-74
2021/08/01 06:14:17;;;;;;;10.32;3.88;;;;;;;18.92;87.62;95645.03;5020335;28;20233;-77
2021/08/01 06:16:44;;;;;;;8.73;3.97;;;;;;;18.89;88.82;95649.00;5019248;28;20206;-78
2021/08/01 06:19:10;;;;;;;7.10;4.25;;;;;;;18.81;89.42;95653.91;5020077;28;20206;-75
2021/08/01 06:21:37;;;;;;;9.77;3.97;;;;;;;18.91;88.72;95644.22;5019454;28;20218;-75
2021/08/01 06:24:03;;;;;;;13.07;4.20;;;;;;;18.92;89.61;95648.50;5020097;28;20202;-78
2021/08/01 06:26:31;;;;;;;7.25;3.88;;;;;;;19.11;89.58;95663.28;5018724;28;20201;-75
2021/08/01 06:28:58;;;;;;;6.95;3.60;;;;;;;19.02;87.98;95657.50;5019216;28;20582;-75
2021/08/01 06:31:24;;;;;;;8.02;4.20;;;;;;;19.09;90.21;95655.50;5019294;28;20246;-76
2021/08/01 06:33:51;;;;;;;7.80;4.10;;;;;;;19.26;87.94;95655.50;5018436;28;20552;-74
2021/08/01 06:36:18;;;;;;;7.32;4.22;;;;;;;19.31;86.63;95651.06;5017684;28;20712;-75
2021/08/01 06:38:46;;;;;;;4.60;3.20;;;;;;;19.34;86.37;95657.75;5018721;28;20206;-75
2021/08/01 06:41:13;;;;;;;4.97;3.67;;;;;;;18.94;84.72;95649.88;5018196;28;20226;-74
2021/08/01 06:43:41;;;;;;;5.38;3.83;;;;;;;19.12;86.84;95648.88;5018351;28;20213;-74
2021/08/01 06:46:08;;;;;;;6.93;3.70;;;;;;;19.26;88.31;95652.84;5016804;28;21202;-75
2021/08/01 06:48:34;;;;;;;6.30;3.47;;;;;;;19.30;85.26;95653.97;5018138;28;20206;-75
2021/08/01 06:51:02;;;;;;;5.07;3.40;;;;;;;19.17;85.88;95657.78;5017755;28;20701;-75
2021/08/01 06:53:28;;;;;;;9.05;3.97;;;;;;;19.24;85.31;95662.94;5017815;28;20216;-76
2021/08/01 06:55:55;;;;;;;5.95;3.47;;;;;;;19.18;84.87;95658.56;5017634;28;20198;-74
2021/08/01 06:58:21;;;;;;;5.30;3.40;;;;;;;19.26;82.44;95668.88;5018513;28;20666;-75
2021/08/01 07:00:50;;;;;;;6.90;3.45;;;;;;;19.22;82.85;95671.22;5017343;28;20237;-74
2021/08/01 07:03:18;;;;;;;8.18;3.38;;;;;;;19.00;82.88;95672.13;5018945;28;20231;-79
2021/08/01 07:05:45;;;;;;;6.55;3.75;;;;;;;19.14;86.58;95679.63;5019417;28;20213;-79
2021/08/01 07:08:11;;;;;;;5.95;3.53;;;;;;;19.05;84.21;95683.72;5019655;28;20223;-75
2021/08/01 07:10:38;;;;;;;6.65;3.78;;;;;;;18.83;85.21;95676.66;5019745;28;20226;-75
2021/08/01 07:13:06;;;;;;;6.03;3.83;;;;;;;18.95;86.92;95669.38;5020915;28;20234;-77
2021/08/01 07:15:33;;;;;;;8.45;3.67;;;;;;;19.09;85.55;95673.38;5019590;28;20612;-76
2021/08/01 07:18:02;;;;;;;9.27;4.07;;;;;;;19.27;86.54;95681.16;5019651;28;21172;-75
2021/08/01 07:20:29;;;;;;;8.55;4.10;;;;;;;18.93;84.04;95691.00;5018603;28;20236;-80
2021/08/01 07:22:56;;;;;;;7.55;4.30;;;;;;;19.28;85.29;95704.16;5019614;28;20213;-76
2021/08/01 07:25:24;;;;;;;5.28;4.22;;;;;;;19.40;87.08;95699.53;5019753;28;20213;-75
2021/08/01 07:27:50;;;;;;;7.07;3.70;;;;;;;19.07;85.39;95707.56;5020144;28;20670;-76
2021/08/01 07:30:17;;;;;;;7.25;3.92;;;;;;;19.30;88.26;95716.22;5020461;28;20201;-79
2021/08/01 07:32:43;;;;;;;5.45;3.47;;;;;;;19.12;85.48;95716.44;5020998;28;20321;-80
2021/08/01 07:35:11;;;;;;;6.53;3.80;;;;;;;19.23;86.01;95712.09;5019850;28;20209;-80
2021/08/01 07:37:40;;;;;;;10.38;4.03;;;;;;;19.24;87.16;95721.72;5019492;28;20549;-76
2021/08/01 07:40:08;;;;;;;10.50;4.05;;;;;;;18.83;88.69;95711.38;5019224;28;20213;-75
2021/08/01 07:42:35;;;;;;;6.35;4.15;;;;;;;19.04;88.36;95705.31;5020197;28;20222;-75
2021/08/01 07:45:03;;;;;;;8.13;3.92;;;;;;;18.62;89.82;95709.38;5019922;28;20213;-78
2021/08/01 07:47:34;;;;;;;8.13;4.45;;;;;;;18.87;90.51;95707.16;5019144;28;20205;-77
2021/08/01 07:50:01;;;;;;;6.22;4.13;;;;;;;18.75;91.54;95700.25;5019504;28;20194;-80
2021/08/01 07:52:29;;;;;;;5.95;3.97;;;;;;;18.83;89.78;95707.91;5019143;28;20225;-75
2021/08/01 07:54:56;;;;;;;5.60;3.70;;;;;;;18.68;88.30;95712.94;5019603;28;20212;-75
2021/08/01 07:57:24;;;;;;;5.20;3.58;;;;;;;18.54;88.05;95723.09;5018194;28;20212;-75
2021/08/01 07:59:51;;;;;;;5.82;3.95;;;;;;;18.50;89.88;95707.81;5018768;28;20213;-78
2021/08/01 08:02:18;;;;;;;6.25;4.20;;;;;;;18.69;89.82;95704.69;5018904;28;20706;-75
2021/08/01 08:04:44;;;;;;;7.97;4.45;;;;;;;18.72;90.71;95692.75;5018719;28;20202;-76
2021/08/01 08:07:11;;;;;;;6.70;3.70;;;;;;;18.59;90.01;95696.50;5017685;28;20662;-79
2021/08/01 08:09:39;;;;;;;6.88;3.40;;;;;;;18.48;89.39;95700.03;5018849;28;20206;-78
2021/08/01 08:12:06;;;;;;;6.32;3.65;;;;;;;18.52;89.90;95706.53;5018669;28;20226;-75
2021/08/01 08:14:33;;;;;;;6.40;3.60;;;;;;;18.48;90.07;95708.06;5018213;28;20205;-75
2021/08/01 08:16:59;;;;;;;7.80;3.60;;;;;;;18.24;90.78;95704.88;5018535;28;20214;-77
2021/08/01 08:19:27;;;;;;;7.15;3.78;;;;;;;18.68;90.94;95697.72;5019060;28;20208;-76
2021/08/01 08:21:53;;;;;;;4.90;3.47;;;;;;;18.51;90.05;95698.75;5018265;28;20340;-75
2021/08/01 08:24:20;;;;;;;8.63;4.15;;;;;;;19.03;91.06;95699.19;5017821;28;20202;-75
2021/08/01 08:26:48;;;;;;;8.82;4.95;;;;;;;19.41;90.61;95703.81;5017890;28;20202;-75
2021/08/01 08:29:15;;;;;;;11.45;3.90;;;;;;;19.53;90.54;95700.00;5018425;28;20200;-77
2021/08/01 08:31:41;;;;;;;9.77;4.88;;;;;;;19.43;90.16;95707.06;5017472;28;20225;-76
2021/08/01 08:34:08;;;;;;;10.60;4.63;;;;;;;19.66;90.30;95713.81;5018242;28;20291;-78
2021/08/01 08:36:34;;;;;;;6.65;4.10;;;;;;;19.70;89.29;95720.34;5017303;28;20673;-76
2021/08/01 08:39:01;;;;;;;5.43;4.20;;;;;;;19.54;87.90;95724.88;5017907;28;20228;-76
2021/08/01 08:41:28;;;;;;;9.13;4.43;;;;;;;20.05;88.04;95718.19;5017890;28;20225;-77
2021/08/01 08:43:56;;;;;;;7.43;3.88;;;;;;;19.64;87.94;95729.31;5017863;28;20690;-77
2021/08/01 08:46:23;;;;;;;6.00;4.00;;;;;;;19.50;89.68;95734.44;5017278;28;20212;-75
2021/08/01 08:48:50;;;;;;;8.73;4.30;;;;;;;19.66;90.00;95721.06;5017426;28;20217;-76
2021/08/01 08:51:16;;;;;;;7.53;4.72;;;;;;;19.85;89.90;95717.84;5017079;28;20233;-78
2021/08/01 08:53:48;;;;;;;6.18;3.90;;;;;;;19.67;86.42;95725.34;5017968;28;20206;-76
2021/08/01 08:56:16;;;;;;;6.50;4.25;;;;;;;19.57;89.83;95732.41;5016756;28;20289;-79
2021/08/01 08:58:43;;;;;;;7.78;4.30;;;;;;;19.51;89.44;95730.72;5017838;28;20208;-76
2021/08/01 09:01:11;;;;;;;5.53;3.72;;;;;;;18.95;89.82;95741.47;5017911;28;20225;-77
2021/08/01 09:03:38;;;;;;;6.55;4.18;;;;;;;19.36;88.99;95743.81;5017396;28;20206;-79
2021/08/01 09:06:04;;;;;;;7.43;3.80;;;;;;;19.25;89.11;95734.84;5017430;28;20202;-76
2021/08/01 09:08:31;;;;;;;5.97;4.22;;;;;;;19.41;88.75;95728.69;5016405;28;20226;-75
2021/08/01 09:10:58;;;;;;;5.63;3.83;;;;;;;19.47;88.53;95734.91;5011681;28;20712;-78
2021/08/01 09:13:45;;;;;;;6.70;4.25;;;;;;;19.96;88.15;95737.56;5016563;28;20213;-74
2021/08/01 09:16:14;;;;;;;6.32;3.42;;;;;;;19.49;87.27;95751.50;5015041;28;20224;-73
2021/08/01 09:18:41;;;;;;;5.03;3.55;;;;;;;18.97;90.19;95758.06;5015714;28;20972;-73
2021/08/01 09:21:07;;;;;;;4.60;3.53;;;;;;;19.06;88.78;95759.34;5014473;28;20237;-73
2021/08/01 09:23:36;;;;;;;10.32;3.83;;;;;;;19.22;88.91;95755.88;5016119;28;20198;-73
2021/08/01 09:26:05;;;;;;;5.55;3.50;;;;;;;19.16;89.42;95759.53;5014910;28;20202;-73
2021/08/01 09:28:33;;;;;;;5.80;3.95;;;;;;;19.17;89.51;95750.44;5015874;28;20203;-73
2021/08/01 09:31:02;;;;;;;4.72;3.78;;;;;;;19.20;89.78;95755.31;5015112;28;20233;-73
2021/08/01 09:33:36;;;;;;;6.43;4.40;;;;;;;19.58;90.14;95765.03;5016009;28;20209;-73
2021/08/01 09:36:11;;;;;;;7.65;3.92;;;;;;;19.37;89.42;95761.47;5014624;28;20206;-73
2021/08/01 09:38:52;;;;;;;8.55;4.57;;;;;;;19.36;89.99;95757.19;5015195;28;20708;-73
2021/08/01 09:41:20;;;;;;;5.57;4.07;;;;;;;19.26;91.42;95765.03;5015069;28;20305;-73
2021/08/01 09:43:49;;;;;;;5.97;4.03;;;;;;;18.84;91.40;95761.03;5017644;28;20209;-74
2021/08/01 09:46:16;;;;;;;5.68;3.85;;;;;;;18.45;92.58;95761.88;5018368;28;20202;-73
2021/08/01 09:48:44;;;;;;;7.68;3.97;;;;;;;18.83;92.38;95753.28;5019406;28;20205;-73
2021/08/01 09:51:12;;;;;;;6.65;3.70;;;;;;;18.43;92.46;95758.63;5018931;28;20881;-73
2021/08/01 09:53:40;;;;;;;6.63;4.28;;;;;;;18.84;91.89;95755.72;5017997;28;20198;-73
2021/08/01 09:56:15;;;;;;;5.90;4.07;;;;;;;18.99;91.28;95758.63;5017337;28;20210;-73
2021/08/01 09:58:42;;;;;;;6.93;4.25;;;;;;;19.18;92.05;95742.22;5019467;28;20339;-74
2021/08/01 10:01:33;;;;;;;6.90;4.50;;;;;;;19.38;90.20;95744.41;5017867;28;20226;-74
2021/08/01 10:04:00;;;;;;;5.68;4.13;;;;;;;18.88;92.20;95751.50;5017909;28;20206;-73
2021/08/01 10:06:27;;;;;;;7.95;4.40;;;;;;;18.78;92.17;95751.31;5017890;28;20206;-73
2021/08/01 10:08:54;;;;;;;7.28;4.30;;;;;;;19.08;90.25;95735.84;5018473;28;20397;-73
2021/08/01 10:11:23;;;;;;;8.52;4.63;;;;;;;19.21;92.34;95735.56;5018711;28;20391;-74
2021/08/01 10:13:51;;;;;;;6.65;4.25;;;;;;;19.31;91.09;95738.38;5018542;28;20289;-73
2021/08/01 10:16:17;;;;;;;6.75;4.63;;;;;;;18.94;89.99;95742.53;5017549;28;20213;-73
2021/08/01 10:18:46;;;;;;;11.35;5.72;;;;;;;19.21;90.04;95733.69;5018181;28;21015;-73
2021/08/01 10:21:17;;;;;;;6.20;3.95;;;;;;;19.31;88.22;95736.53;5017797;28;20230;-73
2021/08/01 10:23:45;;;;;;;11.35;5.30;;;;;;;19.49;89.99;95730.13;5018933;28;20214;-73
2021/08/01 10:26:15;;;;;;;7.68;4.45;;;;;;;19.28;89.96;95730.88;5017707;28;20206;-73
2021/08/01 10:28:48;;;;;;;7.55;3.75;;;;;;;19.40;87.95;95735.09;5018075;28;20205;-73
2021/08/01 10:31:16;;;;;;;5.25;3.97;;;;;;;19.20;88.32;95729.41;5017022;28;20234;-74
2021/08/01 10:33:52;;;;;;;9.10;4.60;;;;;;;19.17;87.16;95735.25;5016541;28;21106;-73
2021/08/01 10:36:27;;;;;;;4.68;3.60;;;;;;;19.21;87.12;95740.91;5013436;28;20197;-74
2021/08/01 10:38:59;;;;;;;3.97;3.42;;;;;;;18.94;87.75;95734.53;5015672;28;20209;-74
2021/08/01 10:41:28;;;;;;;5.40;4.30;;;;;;;18.97;88.80;95740.19;5016811;28;20268;-74
2021/08/01 10:43:56;;;;;;;7.78;4.47;;;;;;;18.98;89.75;95738.34;5016405;28;20214;-74
2021/08/01 10:46:23;;;;;;;6.68;4.35;;;;;;;18.94;88.14;95730.00;5017254;28;20216;-74
2021/08/01 10:48:49;;;;;;;6.85;4.25;;;;;;;19.08;87.32;95725.19;5018260;28;20212;-73
2021/08/01 10:51:16;;;;;;;10.70;4.68;;;;;;;19.15;87.14;95731.19;5017835;28;20218;-73
2021/08/01 10:53:44;;;;;;;6.95;4.35;;;;;;;19.33;85.96;95730.94;5017687;28;20217;-73
2021/08/01 10:56:31;;;;;;;9.90;4.68;;;;;;;19.39;86.33;95721.97;5016896;28;20213;-73
2021/08/01 10:58:59;;;;;;;4.93;3.03;;;;;;;18.76;87.57;95726.72;5017704;28;20205;-74
2021/08/01 11:01:26;;;;;;;8.23;5.25;;;;;;;19.25;88.71;95731.38;5017829;28;20228;-73
2021/08/01 11:04:29;;;;;;;8.80;4.43;;;;;;;19.24;89.14;95732.41;5016179;28;20213;-73
2021/08/01 11:06:55;;;;;;;9.23;5.70;;;;;;;19.12;89.03;95729.00;5014907;28;20220;-74
2021/08/01 11:09:23;;;;;;;7.82;5.35;;;;;;;19.23;88.55;95722.78;5015935;28;20213;-73
2021/08/01 11:12:27;;;;;;;9.77;4.93;;;;;;;19.51;86.69;95726.16;5016163;28;20713;-73
2021/08/01 11:14:54;;;;;;;6.32;4.05;;;;;;;19.32;86.91;95737.34;5015180;28;20202;-74
2021/08/01 11:18:08;;;;;;;8.23;5.50;;;;;;;19.63;87.94;95727.69;5015312;28;20896;-73
2021/08/01 11:20:51;;;;;;;6.20;5.10;;;;;;;19.99;86.68;95726.38;4987445;28;20799;-74
2021/08/01 11:23:18;;;;;;;8.27;4.25;;;;;;;19.47;83.97;95727.69;5017519;28;20202;-75
2021/08/01 11:26:07;;;;;;;5.40;3.65;;;;;;;19.53;81.80;95728.63;5016986;28;20202;-74
2021/08/01 11:28:35;;;;;;;6.65;3.90;;;;;;;19.69;82.36;95724.06;5015543;28;20206;-74
2021/08/01 11:31:21;;;;;;;7.80;4.82;;;;;;;19.86;85.64;95724.81;5017142;28;20635;-74
2021/08/01 11:33:53;;;;;;;6.47;5.00;;;;;;;20.13;84.36;95723.09;5013322;28;21054;-75
2021/08/01 11:36:25;;;;;;;6.57;4.93;;;;;;;20.25;83.63;95723.78;5013772;28;20567;-75